createdAt,value
2022-10-11T00:00:39.925Z,2.87
2022-10-11T00:03:07.693Z,3.00
2022-10-11T00:05:35.858Z,2.90
2022-10-11T00:08:05.460Z,2.70
2022-10-11T00:10:34.052Z,2.90
2022-10-11T00:13:01.510Z,2.93
2022-10-11T00:15:28.882Z,2.90
2022-10-11T00:17:56.936Z,2.93
2022-10-11T00:20:24.493Z,2.90
2022-10-11T00:22:51.508Z,3.00
2022-10-11T00:25:19.616Z,2.90
2022-10-11T00:27:47.101Z,2.93
2022-10-11T00:30:14.837Z,3.00
2022-10-11T00:32:42.357Z,2.90
2022-10-11T00:35:10.090Z,2.90
2022-10-11T00:37:38.808Z,3.10
2022-10-11T00:40:13.781Z,2.87
2022-10-11T00:42:41.415Z,2.90
2022-10-11T00:45:27.131Z,3.10
2022-10-11T00:48:03.181Z,2.87
2022-10-11T00:50:35.197Z,3.20
2022-10-11T00:53:11.166Z,3.07
2022-10-11T00:55:49.649Z,3.00
2022-10-11T00:58:19.058Z,2.90
2022-10-11T01:00:46.707Z,3.00
2022-10-11T01:03:15.129Z,2.90
2022-10-11T01:05:42.706Z,2.97
2022-10-11T01:08:10.607Z,3.23
2022-10-11T01:10:38.178Z,3.00
2022-10-11T01:13:20.741Z,3.00
2022-10-11T01:16:44.587Z,2.90
2022-10-11T01:19:52.877Z,2.87
2022-10-11T01:22:53.314Z,2.87
2022-10-11T01:26:09.319Z,2.87
2022-10-11T01:29:21.310Z,2.90
2022-10-11T01:32:01.350Z,3.00
2022-10-11T01:35:03.799Z,2.83
2022-10-11T01:38:01.961Z,2.90
2022-10-11T01:40:39.607Z,2.90
2022-10-11T01:43:07.579Z,2.87
2022-10-11T01:45:36.236Z,2.83
2022-10-11T01:48:08.094Z,2.97
2022-10-11T01:50:48.085Z,2.80
2022-10-11T01:53:59.894Z,2.97
2022-10-11T01:57:18.850Z,3.00
2022-10-11T02:00:14.370Z,2.93
2022-10-11T02:03:28.139Z,2.80
2022-10-11T02:06:22.178Z,2.90
2022-10-11T02:09:29.843Z,2.87
2022-10-11T02:12:10.275Z,2.80
2022-10-11T02:14:47.739Z,3.00
2022-10-11T02:17:20.750Z,2.77
2022-10-11T02:19:54.463Z,2.93
2022-10-11T02:22:40.095Z,2.87
2022-10-11T02:25:12.712Z,3.00
2022-10-11T02:27:43.536Z,2.80
2022-10-11T02:30:11.895Z,2.80
2022-10-11T02:32:41.994Z,2.70
2022-10-11T02:35:10.199Z,2.77
2022-10-11T02:37:48.331Z,2.80
2022-10-11T02:40:32.840Z,2.80
2022-10-11T02:43:17.445Z,2.80
2022-10-11T02:45:54.120Z,2.77
2022-10-11T02:48:23.985Z,2.70
2022-10-11T02:50:53.961Z,2.80
2022-10-11T02:53:22.315Z,2.77
2022-10-11T02:55:55.106Z,2.70
2022-10-11T02:58:24.056Z,2.73
2022-10-11T03:00:51.737Z,2.70
2022-10-11T03:03:19.284Z,2.90
2022-10-11T03:05:46.793Z,2.90
2022-10-11T03:08:17.069Z,2.80
2022-10-11T03:10:45.141Z,2.80
2022-10-11T03:13:17.260Z,2.70
2022-10-11T03:16:02.686Z,2.80
2022-10-11T03:18:31.722Z,2.90
2022-10-11T03:20:59.289Z,2.70
2022-10-11T03:23:26.800Z,2.80
2022-10-11T03:25:54.247Z,2.90
2022-10-11T03:28:21.805Z,2.77
2022-10-11T03:30:51.262Z,2.80
2022-10-11T03:33:19.180Z,2.80
2022-10-11T03:35:48.228Z,2.80
2022-10-11T03:38:21.112Z,2.77
2022-10-11T03:40:48.901Z,2.70
2022-10-11T03:43:16.699Z,2.80
2022-10-11T03:45:44.313Z,2.77
2022-10-11T03:48:12.134Z,2.70
2022-10-11T03:50:39.686Z,2.80
2022-10-11T03:53:07.777Z,2.80
2022-10-11T03:55:35.325Z,2.80
2022-10-11T03:58:02.826Z,2.80
2022-10-11T04:00:30.343Z,2.77
2022-10-11T04:02:59.033Z,2.77
2022-10-11T04:05:26.838Z,2.83
2022-10-11T04:07:54.266Z,3.00
2022-10-11T04:10:21.866Z,3.00
2022-10-11T04:12:48.801Z,3.00
2022-10-11T04:15:16.546Z,2.80
2022-10-11T04:17:44.113Z,2.90
2022-10-11T04:20:11.959Z,2.90
2022-10-11T04:22:39.455Z,2.83
2022-10-11T04:25:08.037Z,2.87
2022-10-11T04:27:35.830Z,2.77
2022-10-11T04:30:04.696Z,2.97
2022-10-11T04:32:32.363Z,2.90
2022-10-11T04:34:59.782Z,2.93
2022-10-11T04:37:27.234Z,2.87
2022-10-11T04:39:54.835Z,2.90
2022-10-11T04:42:22.491Z,2.80
2022-10-11T04:44:50.093Z,2.90
2022-10-11T04:47:17.631Z,2.90
2022-10-11T04:49:45.179Z,3.00
2022-10-11T04:52:12.711Z,3.00
2022-10-11T04:54:40.298Z,2.80
2022-10-11T04:57:07.706Z,2.83
2022-10-11T04:59:35.230Z,2.87
2022-10-11T05:02:02.815Z,2.93
2022-10-11T05:04:30.439Z,3.00
2022-10-11T05:06:57.909Z,2.97
2022-10-11T05:09:25.407Z,2.90
2022-10-11T05:11:52.403Z,2.77
2022-10-11T05:14:19.866Z,2.90
2022-10-11T05:16:47.319Z,2.87
2022-10-11T05:19:14.783Z,3.00
2022-10-11T05:21:42.298Z,3.03
2022-10-11T05:24:09.707Z,3.03
2022-10-11T05:26:37.151Z,3.10
2022-10-11T05:29:04.749Z,2.97
2022-10-11T05:31:32.998Z,2.93
2022-10-11T05:34:00.448Z,2.90
2022-10-11T05:36:27.907Z,2.93
2022-10-11T05:38:55.424Z,2.93
2022-10-11T05:41:22.863Z,2.90
2022-10-11T05:43:50.344Z,2.80
2022-10-11T05:46:17.803Z,2.80
2022-10-11T05:48:45.299Z,2.83
2022-10-11T05:51:12.863Z,2.90
2022-10-11T05:53:40.521Z,2.80
2022-10-11T05:56:23.235Z,2.80
2022-10-11T05:58:51.825Z,2.90
2022-10-11T06:01:25.430Z,2.83
2022-10-11T06:03:53.292Z,2.83
2022-10-11T06:06:21.676Z,2.90
2022-10-11T06:08:49.368Z,3.07
2022-10-11T06:11:25.431Z,2.90
2022-10-11T06:14:00.673Z,2.80
2022-10-11T06:16:28.216Z,2.90
2022-10-11T06:18:57.565Z,2.77
2022-10-11T06:21:25.379Z,2.73
2022-10-11T06:23:59.837Z,3.00
2022-10-11T06:26:27.656Z,2.83
2022-10-11T06:28:55.214Z,2.97
2022-10-11T06:31:22.837Z,2.83
2022-10-11T06:33:49.757Z,2.83
2022-10-11T06:36:18.748Z,2.80
2022-10-11T06:38:46.208Z,2.70
2022-10-11T06:41:18.697Z,2.90
2022-10-11T06:43:46.508Z,2.87
2022-10-11T06:46:13.973Z,2.80
2022-10-11T06:48:43.447Z,2.90
2022-10-11T06:51:17.210Z,2.80
2022-10-11T06:53:51.905Z,2.80
2022-10-11T06:56:19.691Z,2.73
2022-10-11T06:58:48.475Z,2.80
2022-10-11T07:01:19.017Z,2.90
2022-10-11T07:03:47.117Z,2.60
2022-10-11T07:06:23.597Z,2.83
2022-10-11T07:08:51.206Z,2.90
2022-10-11T07:11:26.193Z,2.90
2022-10-11T07:13:57.136Z,2.90
2022-10-11T07:16:26.713Z,2.97
2022-10-11T07:19:01.096Z,2.87
2022-10-11T07:21:32.568Z,3.20
2022-10-11T07:24:00.563Z,3.03
2022-10-11T07:26:31.292Z,3.10
2022-10-11T07:29:01.617Z,2.97
2022-10-11T07:31:29.184Z,3.00
2022-10-11T07:33:56.590Z,3.27
2022-10-11T07:36:24.124Z,2.93
2022-10-11T07:38:51.686Z,2.80
2022-10-11T07:41:19.474Z,2.87
2022-10-11T07:43:49.411Z,2.90
2022-10-11T07:46:18.252Z,2.77
2022-10-11T07:48:45.774Z,3.10
2022-10-11T07:51:23.146Z,3.20
2022-10-11T07:53:54.183Z,3.30
2022-10-11T07:56:27.142Z,3.50
2022-10-11T07:59:01.348Z,3.63
2022-10-11T08:04:18.222Z,3.90
2022-10-11T08:06:48.680Z,4.13
2022-10-11T08:09:19.887Z,4.00
2022-10-11T08:11:47.254Z,4.10
2022-10-11T08:14:14.814Z,4.07
2022-10-11T08:16:42.246Z,3.93
2022-10-11T08:19:11.257Z,3.60
2022-10-11T08:21:38.726Z,3.60
2022-10-11T08:24:07.833Z,3.40
2022-10-11T08:26:35.489Z,3.43
2022-10-11T08:29:03.876Z,3.13
2022-10-11T08:31:32.971Z,3.43
2022-10-11T08:34:00.522Z,3.27
2022-10-11T08:36:27.952Z,3.13
2022-10-11T08:38:55.489Z,2.93
2022-10-11T08:41:39.484Z,2.63
2022-10-11T08:45:05.583Z,2.60
2022-10-11T08:47:39.991Z,2.63
2022-10-11T08:50:19.608Z,3.27
2022-10-11T08:53:33.875Z,3.40
2022-10-11T08:56:02.111Z,3.70
2022-10-11T08:58:50.507Z,3.53
2022-10-11T09:01:24.410Z,3.10
2022-10-11T09:03:53.053Z,2.77
2022-10-11T09:06:35.407Z,2.77
2022-10-11T09:09:35.131Z,3.00
2022-10-11T09:13:02.801Z,2.40
2022-10-11T09:16:02.950Z,2.20
2022-10-11T09:18:52.940Z,2.10
2022-10-11T09:21:58.601Z,2.17
2022-10-11T09:24:51.604Z,2.30
2022-10-11T09:28:01.408Z,2.37
2022-10-11T09:30:25.456Z,2.50
2022-10-11T09:33:13.579Z,2.30
2022-10-11T09:35:47.043Z,2.33
2022-10-11T09:38:48.444Z,2.30
2022-10-11T09:41:30.396Z,2.30
2022-10-11T09:43:57.868Z,2.50
2022-10-11T09:46:45.518Z,2.47
2022-10-11T09:49:16.504Z,2.50
2022-10-11T09:51:52.654Z,2.67
2022-10-11T09:54:27.276Z,2.73
2022-10-11T09:56:55.169Z,2.70
2022-10-11T09:59:35.111Z,2.60
2022-10-11T10:02:14.839Z,2.47
2022-10-11T10:04:54.888Z,2.47
2022-10-11T10:07:23.057Z,2.60
2022-10-11T10:09:52.617Z,2.50
2022-10-11T10:12:28.373Z,2.50
2022-10-11T10:15:19.799Z,2.43
2022-10-11T10:17:52.512Z,2.40
2022-10-11T10:20:35.495Z,2.33
2022-10-11T10:23:11.517Z,2.53
2022-10-11T10:25:43.535Z,2.40
2022-10-11T10:28:18.583Z,2.30
2022-10-11T10:30:58.095Z,2.40
2022-10-11T10:33:33.489Z,2.23
2022-10-11T10:36:24.534Z,2.37
2022-10-11T10:39:07.376Z,2.40
2022-10-11T10:41:35.909Z,2.40
2022-10-11T10:44:04.215Z,2.33
2022-10-11T10:47:02.414Z,2.43
2022-10-11T10:50:02.173Z,2.30
2022-10-11T10:52:55.425Z,2.60
2022-10-11T10:55:46.671Z,2.53
2022-10-11T10:58:36.609Z,2.70
2022-10-11T11:01:19.125Z,2.67
2022-10-11T11:04:27.226Z,2.80
2022-10-11T11:07:04.541Z,2.63
2022-10-11T11:09:44.458Z,2.50
2022-10-11T11:12:19.682Z,2.33
2022-10-11T11:15:02.007Z,2.27
2022-10-11T11:17:47.073Z,2.00
2022-10-11T11:20:53.014Z,2.00
2022-10-11T11:23:35.738Z,1.80
2022-10-11T11:26:25.751Z,2.07
2022-10-11T11:29:19.446Z,2.00
2022-10-11T11:32:28.058Z,1.90
2022-10-11T11:35:04.579Z,1.90
2022-10-11T11:37:38.895Z,1.70
2022-10-11T11:40:25.315Z,1.60
2022-10-11T11:42:58.683Z,1.50
2022-10-11T11:45:45.237Z,1.67
2022-10-11T11:48:24.598Z,1.80
2022-10-11T11:51:03.713Z,1.97
2022-10-11T11:54:06.236Z,1.93
2022-10-11T11:57:46.187Z,2.00
2022-10-11T12:00:21.258Z,2.07
2022-10-11T12:03:13.395Z,1.90
2022-10-11T12:06:21.311Z,2.10
2022-10-11T12:09:17.531Z,2.10
2022-10-11T12:11:59.111Z,2.40
2022-10-11T12:14:33.403Z,2.67
2022-10-11T12:17:23.651Z,2.90
2022-10-11T12:20:12.016Z,3.27
2022-10-11T12:22:49.892Z,2.90
2022-10-11T12:25:23.319Z,3.10
2022-10-11T12:27:53.977Z,3.30
2022-10-11T12:30:55.484Z,2.80
2022-10-11T12:33:46.488Z,2.50
2022-10-11T12:36:29.642Z,2.27
2022-10-11T12:39:23.392Z,2.37
2022-10-11T12:41:53.668Z,2.27
2022-10-11T12:44:28.968Z,2.20
2022-10-11T12:46:59.206Z,2.10
2022-10-11T12:49:31.069Z,2.27
2022-10-11T12:52:16.225Z,2.20
2022-10-11T12:55:20.813Z,2.30
2022-10-11T12:58:15.584Z,2.20
2022-10-11T13:00:52.017Z,2.40
2022-10-11T13:03:52.902Z,2.43
2022-10-11T13:06:25.972Z,2.47
2022-10-11T13:09:16.089Z,2.40
2022-10-11T13:12:01.517Z,2.37
2022-10-11T13:14:35.739Z,2.50
2022-10-11T13:17:38.875Z,2.60
2022-10-11T13:20:19.492Z,2.47
2022-10-11T13:22:53.103Z,2.43
2022-10-11T13:25:27.900Z,2.43
2022-10-11T13:27:59.390Z,2.50
2022-10-11T13:30:34.277Z,2.43
2022-10-11T13:33:06.990Z,2.40
2022-10-11T13:35:37.718Z,2.37
2022-10-11T13:38:08.866Z,2.30
2022-10-11T13:40:37.554Z,2.23
2022-10-11T13:43:06.218Z,2.20
2022-10-11T13:45:36.874Z,2.30
2022-10-11T13:48:04.846Z,2.20
2022-10-11T13:50:34.374Z,2.07
2022-10-11T13:53:10.197Z,2.10
2022-10-11T13:55:57.362Z,2.10
2022-10-11T13:58:38.626Z,2.10
2022-10-11T14:01:18.784Z,2.20
2022-10-11T14:04:02.051Z,2.20
2022-10-11T14:06:57.978Z,2.20
2022-10-11T14:09:31.270Z,2.20
2022-10-11T14:12:31.777Z,2.20
2022-10-11T14:15:01.458Z,2.20
2022-10-11T14:17:44.588Z,2.20
2022-10-11T14:20:12.184Z,2.03
2022-10-11T14:22:39.618Z,1.97
2022-10-11T14:25:07.262Z,2.00
2022-10-11T14:27:34.843Z,2.00
2022-10-11T14:32:53.687Z,2.10
2022-10-11T14:35:25.355Z,2.23
2022-10-11T14:37:53.087Z,2.13
2022-10-11T14:40:28.051Z,2.30
2022-10-11T14:42:55.821Z,2.23
2022-10-11T14:45:23.488Z,2.20
2022-10-11T14:47:51.789Z,2.27
2022-10-11T14:50:42.879Z,2.17
2022-10-11T14:53:11.927Z,2.10
2022-10-11T14:55:40.807Z,2.23
2022-10-11T14:58:10.774Z,2.20
2022-10-11T15:00:38.375Z,2.20
2022-10-11T15:03:07.239Z,2.10
2022-10-11T15:05:36.432Z,2.17
2022-10-11T15:08:06.353Z,2.10
2022-10-11T15:10:40.663Z,2.10
2022-10-11T15:13:09.356Z,2.07
2022-10-11T15:15:40.791Z,2.20
2022-10-11T15:18:12.812Z,2.10
2022-10-11T15:20:45.344Z,2.10
2022-10-11T15:23:13.162Z,2.20
2022-10-11T15:25:41.564Z,2.30
2022-10-11T15:28:32.276Z,2.20
2022-10-11T15:31:00.575Z,2.40
2022-10-11T15:33:28.083Z,2.37
2022-10-11T15:35:55.589Z,2.50
2022-10-11T15:38:26.908Z,2.50
2022-10-11T15:40:54.872Z,2.50
2022-10-11T15:43:25.048Z,2.63
2022-10-11T15:45:54.330Z,2.53
2022-10-11T15:48:26.200Z,2.60
2022-10-11T15:50:54.573Z,2.70
2022-10-11T15:53:29.924Z,2.60
2022-10-11T15:56:02.088Z,2.50
2022-10-11T15:58:39.121Z,2.53
2022-10-11T16:01:19.052Z,2.70
2022-10-11T16:03:50.637Z,2.40
2022-10-11T16:06:19.088Z,2.30
2022-10-11T16:08:47.602Z,2.30
2022-10-11T16:11:15.201Z,2.30
2022-10-11T16:13:42.640Z,2.30
2022-10-11T16:16:11.189Z,2.37
2022-10-11T16:18:38.988Z,2.27
2022-10-11T16:21:15.366Z,2.30
2022-10-11T16:23:43.029Z,2.30
2022-10-11T16:26:16.204Z,2.30
2022-10-11T16:28:43.919Z,2.40
2022-10-11T16:31:18.109Z,2.30
2022-10-11T16:33:46.293Z,2.30
2022-10-11T16:36:36.370Z,2.40
2022-10-11T16:39:10.842Z,2.40
2022-10-11T16:41:38.991Z,2.53
2022-10-11T16:44:07.382Z,2.57
2022-10-11T16:46:35.277Z,2.67
2022-10-11T16:49:03.503Z,2.57
2022-10-11T16:51:31.169Z,2.60
2022-10-11T16:53:58.656Z,2.50
2022-10-11T16:56:27.458Z,2.53
2022-10-11T16:58:55.804Z,2.50
2022-10-11T17:01:23.622Z,2.50
2022-10-11T17:03:52.546Z,2.50
2022-10-11T17:06:20.271Z,2.50
2022-10-11T17:08:47.763Z,2.57
2022-10-11T17:11:18.926Z,2.53
2022-10-11T17:13:46.703Z,2.53
2022-10-11T17:16:14.939Z,2.67
2022-10-11T17:18:42.422Z,2.50
2022-10-11T17:21:15.321Z,2.47
2022-10-11T17:23:43.138Z,2.50
2022-10-11T17:26:27.453Z,2.60
2022-10-11T17:28:58.519Z,2.60
2022-10-11T17:31:27.834Z,2.60
2022-10-11T17:33:58.559Z,2.60
2022-10-11T17:36:31.602Z,2.67
2022-10-11T17:39:06.410Z,2.73
2022-10-11T17:41:34.067Z,2.60
2022-10-11T17:44:02.923Z,2.70
2022-10-11T17:46:33.636Z,2.60
2022-10-11T17:49:06.651Z,2.77
2022-10-11T17:51:36.412Z,2.80
2022-10-11T17:54:06.011Z,2.80
2022-10-11T17:56:37.600Z,2.90
2022-10-11T17:59:06.575Z,3.13
2022-10-11T18:01:34.591Z,3.10
2022-10-11T18:04:05.928Z,3.33
2022-10-11T18:06:38.864Z,3.63
2022-10-11T18:09:06.833Z,3.37
2022-10-11T18:11:34.187Z,3.27
2022-10-11T18:14:01.280Z,3.43
2022-10-11T18:16:30.451Z,3.57
2022-10-11T18:18:59.247Z,3.60
2022-10-11T18:21:31.342Z,3.73
2022-10-11T18:24:07.832Z,4.13
2022-10-11T18:26:35.503Z,4.30
2022-10-11T18:29:04.540Z,4.83
2022-10-11T18:31:34.952Z,4.57
2022-10-11T18:34:08.247Z,4.70
2022-10-11T18:36:36.932Z,4.70
2022-10-11T18:39:08.484Z,4.83
2022-10-11T18:41:37.971Z,4.57
2022-10-11T18:44:08.641Z,4.73
2022-10-11T18:46:36.577Z,4.73
2022-10-11T18:49:04.455Z,4.20
2022-10-11T18:51:36.652Z,4.20
2022-10-11T18:54:05.893Z,3.50
2022-10-11T18:56:36.384Z,3.40
2022-10-11T18:59:05.145Z,3.10
2022-10-11T19:01:38.150Z,3.30
2022-10-11T19:04:08.991Z,3.13
2022-10-11T19:06:40.537Z,3.00
2022-10-11T19:09:22.064Z,2.97
2022-10-11T19:11:54.200Z,2.87
2022-10-11T19:14:28.600Z,2.83
2022-10-11T19:16:57.252Z,2.90
2022-10-11T19:19:30.804Z,2.80
2022-10-11T19:21:59.429Z,2.90
2022-10-11T19:24:29.673Z,2.70
2022-10-11T19:27:02.301Z,2.90
2022-10-11T19:29:30.855Z,2.90
2022-10-11T19:32:01.310Z,2.83
2022-10-11T19:34:29.841Z,2.87
2022-10-11T19:36:57.781Z,2.83
2022-10-11T19:39:25.598Z,2.90
2022-10-11T19:41:53.213Z,2.90
2022-10-11T19:44:20.921Z,2.90
2022-10-11T19:46:52.660Z,2.80
2022-10-11T19:49:24.670Z,2.80
2022-10-11T19:51:53.590Z,3.00
2022-10-11T19:54:20.993Z,2.90
2022-10-11T19:56:48.821Z,2.80
2022-10-11T19:59:16.624Z,3.00
2022-10-11T20:01:49.328Z,2.80
2022-10-11T20:04:47.055Z,2.90
2022-10-11T20:07:07.518Z,2.90
2022-10-11T20:09:35.041Z,3.10
2022-10-11T20:12:02.634Z,2.80
2022-10-11T20:14:30.130Z,3.00
2022-10-11T20:16:57.904Z,3.00
2022-10-11T20:19:30.688Z,2.83
2022-10-11T20:22:00.649Z,2.87
2022-10-11T20:24:32.205Z,2.97
2022-10-11T20:27:01.239Z,2.90
2022-10-11T20:29:28.821Z,3.10
2022-10-11T20:31:56.398Z,3.17
2022-10-11T20:34:23.384Z,3.03
2022-10-11T20:36:50.837Z,2.97
2022-10-11T20:39:18.303Z,3.17
2022-10-11T20:41:46.110Z,3.00
2022-10-11T20:44:15.777Z,3.03
2022-10-11T20:46:43.199Z,3.10
2022-10-11T20:49:13.125Z,3.10
2022-10-11T20:51:41.946Z,3.10
2022-10-11T20:54:10.063Z,3.03
2022-10-11T20:56:38.357Z,3.10
2022-10-11T20:59:06.549Z,3.07
2022-10-11T21:01:37.786Z,3.20
2022-10-11T21:04:08.004Z,3.17
2022-10-11T21:06:35.638Z,3.10
2022-10-11T21:09:03.439Z,3.40
2022-10-11T21:11:33.449Z,3.23
2022-10-11T21:14:05.020Z,3.17
2022-10-11T21:16:33.574Z,3.20
2022-10-11T21:19:02.211Z,3.40
2022-10-11T21:21:30.497Z,3.33
2022-10-11T21:24:02.394Z,3.13
2022-10-11T21:26:30.539Z,3.43
2022-10-11T21:29:01.468Z,3.30
2022-10-11T21:31:33.779Z,3.47
2022-10-11T21:34:03.791Z,3.30
2022-10-11T21:36:31.251Z,3.20
2022-10-11T21:38:58.823Z,3.13
2022-10-11T21:41:29.725Z,3.20
2022-10-11T21:43:57.431Z,3.47
2022-10-11T21:46:54.121Z,3.23
2022-10-11T21:49:17.779Z,3.23
2022-10-11T21:51:45.345Z,3.33
2022-10-11T21:54:12.800Z,3.33
2022-10-11T21:56:40.243Z,3.50
2022-10-11T21:59:11.160Z,3.37
2022-10-11T22:01:41.077Z,3.60
2022-10-11T22:04:09.112Z,3.40
2022-10-11T22:06:37.651Z,3.33
2022-10-11T22:09:06.694Z,3.37
2022-10-11T22:11:34.522Z,3.47
2022-10-11T22:14:01.939Z,3.43
2022-10-11T22:16:29.493Z,3.30
2022-10-11T22:18:57.080Z,3.47
2022-10-11T22:21:25.242Z,3.50
2022-10-11T22:23:54.061Z,3.30
2022-10-11T22:26:25.496Z,3.33
2022-10-11T22:28:53.251Z,3.30
2022-10-11T22:31:21.586Z,3.20
2022-10-11T22:33:53.082Z,3.10
2022-10-11T22:36:20.626Z,3.30
2022-10-11T22:38:48.140Z,3.17
2022-10-11T22:41:15.632Z,3.00
2022-10-11T22:43:43.168Z,3.20
2022-10-11T22:46:10.882Z,3.07
2022-10-11T22:48:37.933Z,3.03
2022-10-11T22:51:05.497Z,3.27
2022-10-11T22:53:32.960Z,3.30
2022-10-11T22:56:00.624Z,3.20
2022-10-11T22:58:28.269Z,3.10
2022-10-11T23:00:55.832Z,3.10
2022-10-11T23:03:23.355Z,3.03
2022-10-11T23:05:56.758Z,3.00
2022-10-11T23:08:24.460Z,3.00
2022-10-11T23:10:52.417Z,2.90
2022-10-11T23:13:20.403Z,3.10
2022-10-11T23:15:47.915Z,3.30
2022-10-11T23:18:18.533Z,3.03
2022-10-11T23:20:46.034Z,3.03
2022-10-11T23:23:13.465Z,3.10
2022-10-11T23:25:41.062Z,3.00
2022-10-11T23:28:08.577Z,3.03
2022-10-11T23:30:39.031Z,3.00
2022-10-11T23:33:06.594Z,2.87
2022-10-11T23:35:35.291Z,3.10
2022-10-11T23:38:02.801Z,3.20
2022-10-11T23:40:30.190Z,3.20
2022-10-11T23:42:58.264Z,3.10
2022-10-11T23:45:25.725Z,2.93
2022-10-11T23:47:53.266Z,2.87
2022-10-11T23:50:20.243Z,2.90
2022-10-11T23:52:47.694Z,2.90
2022-10-11T23:55:15.274Z,3.10
2022-10-11T23:57:42.698Z,2.90
